Time;durP1;ratioP1;P1;durP2;ratioP2;P2;SDS_P1;SDS_P2;PMS_P1;PMS_P2;Temp;Humidity;BMP_temperature;BMP_pressure;BME280_temperature;BME280_humidity;BME280_pressure;Samples;Min_cycle;Max_cycle;Signal;HPM_P1;HPM_P2
2022/06/12 00:01:28;;;;;;;1.98;1.83;;;;;;;;;;5030840;28;20659;-80
2022/06/12 00:03:55;;;;;;;2.03;1.63;;;;;;;;;;5058761;28;20206;-80
2022/06/12 00:06:23;;;;;;;3.67;2.05;;;;;;;;;;5058062;28;20631;-80
2022/06/12 00:08:50;;;;;;;3.38;1.85;;;;;;;;;;5058890;28;20221;-80
2022/06/12 00:11:20;;;;;;;1.90;1.80;;;;;;;;;;5047247;28;20227;-80
2022/06/12 00:13:49;;;;;;;2.00;1.80;;;;;;;;;;5031958;28;20206;-80
2022/06/12 00:16:17;;;;;;;2.97;2.25;;;;;;;;;;5040582;28;20240;-81
2022/06/12 00:18:44;;;;;;;2.03;1.92;;;;;;;;;;5034907;28;20227;-80
2022/06/12 00:21:12;;;;;;;1.90;1.80;;;;;;;;;;5018679;28;20241;-81
2022/06/12 00:23:39;;;;;;;2.42;1.67;;;;;;;;;;5018944;28;20234;-81
2022/06/12 00:26:07;;;;;;;2.22;2.03;;;;;;;;;;5018778;28;20246;-80
2022/06/12 00:28:35;;;;;;;2.77;2.07;;;;;;;;;;5019483;28;20203;-81
2022/06/12 00:31:03;;;;;;;1.98;1.88;;;;;;;;;;5024303;28;20593;-79
2022/06/12 00:33:31;;;;;;;2.42;1.92;;;;;;;;;;5038878;28;20308;-81
2022/06/12 00:35:59;;;;;;;3.03;2.30;;;;;;;;;;5038426;28;20544;-81
2022/06/12 00:38:26;;;;;;;2.30;1.98;;;;;;;;;;5038121;28;20226;-81
2022/06/12 00:40:53;;;;;;;2.15;2.00;;;;;;;;;;5038324;28;20261;-80
2022/06/12 00:43:22;;;;;;;2.57;2.37;;;;;;;;;;5037335;28;20211;-80
2022/06/12 00:45:50;;;;;;;2.00;1.90;;;;;;;;;;5038603;28;20238;-80
2022/06/12 00:48:20;;;;;;;3.17;2.30;;;;;;;;;;5038410;28;20238;-80
2022/06/12 00:50:51;;;;;;;1.80;1.70;;;;;;;;;;5077222;23;20731;-81
2022/06/12 00:53:20;;;;;;;2.00;1.90;;;;;;;;;;5079788;28;20198;-81
2022/06/12 00:55:50;;;;;;;2.00;1.90;;;;;;;;;;5082472;28;20229;-82
2022/06/12 00:58:23;;;;;;;2.47;2.27;;;;;;;;;;5082308;28;20221;-83
2022/06/12 01:00:50;;;;;;;2.10;1.90;;;;;;;;;;5080033;28;20237;-82
2022/06/12 01:03:19;;;;;;;7.47;2.00;;;;;;;;;;5073844;28;20232;-83
2022/06/12 01:08:32;;;;;;;2.10;1.90;;;;;;;;;;5062173;28;20265;-83
2022/06/12 01:11:02;;;;;;;2.03;1.87;;;;;;;;;;5079668;28;20614;-82
2022/06/12 01:13:30;;;;;;;1.90;1.80;;;;;;;;;;5069478;28;20378;-82
2022/06/12 01:16:01;;;;;;;2.03;1.93;;;;;;;;;;5060382;28;20237;-82
2022/06/12 01:18:31;;;;;;;3.67;2.20;;;;;;;;;;5058173;28;20237;-82
2022/06/12 01:21:03;;;;;;;2.17;2.03;;;;;;;;;;5057221;28;20244;-82
2022/06/12 01:23:42;;;;;;;2.07;1.97;;;;;;;;;;5057720;28;20670;-82
2022/06/12 01:26:24;;;;;;;2.30;2.10;;;;;;;;;;5071465;28;20256;-82
2022/06/12 01:28:54;;;;;;;2.97;2.10;;;;;;;;;;5077568;28;20198;-82
2022/06/12 01:31:25;;;;;;;2.10;2.00;;;;;;;;;;5079671;28;20244;-82
2022/06/12 01:33:58;;;;;;;2.20;2.00;;;;;;;;;;5077227;28;20190;-82
2022/06/12 01:36:27;;;;;;;2.07;1.87;;;;;;;;;;5075660;28;20240;-83
2022/06/12 01:38:58;;;;;;;2.83;1.97;;;;;;;;;;5076396;28;20229;-83
2022/06/12 01:41:29;;;;;;;2.33;1.60;;;;;;;;;;5076191;28;20244;-83
2022/06/12 01:43:59;;;;;;;2.63;2.00;;;;;;;;;;5077913;28;20217;-83
2022/06/12 01:46:30;;;;;;;2.63;1.90;;;;;;;;;;5076851;28;20237;-82
2022/06/12 01:49:02;;;;;;;2.10;2.00;;;;;;;;;;5076923;28;20613;-82
2022/06/12 01:51:32;;;;;;;2.10;2.00;;;;;;;;;;5077052;28;20236;-82
2022/06/12 01:54:03;;;;;;;2.37;2.13;;;;;;;;;;5076258;28;20209;-82
2022/06/12 01:56:34;;;;;;;2.07;1.87;;;;;;;;;;5076092;28;20774;-82
2022/06/12 01:59:05;;;;;;;2.63;2.43;;;;;;;;;;5076938;28;20232;-82
2022/06/12 02:01:35;;;;;;;4.93;2.07;;;;;;;;;;5077647;28;20221;-82
2022/06/12 02:04:05;;;;;;;2.97;2.23;;;;;;;;;;5078298;28;20673;-82
2022/06/12 02:06:36;;;;;;;2.07;1.97;;;;;;;;;;5079379;28;20626;-82
2022/06/12 02:09:06;;;;;;;4.33;2.43;;;;;;;;;;5079403;28;20308;-82
2022/06/12 02:14:26;;;;;;;2.40;2.20;;;;;;;;;;5079886;28;20196;-83
2022/06/12 02:16:55;;;;;;;2.00;1.90;;;;;;;;;;5080011;28;20209;-83
2022/06/12 02:19:25;;;;;;;2.30;2.10;;;;;;;;;;5078134;28;20232;-83
2022/06/12 02:21:54;;;;;;;2.43;1.87;;;;;;;;;;5079138;28;20205;-83
2022/06/12 02:24:24;;;;;;;2.40;2.30;;;;;;;;;;5085699;28;20206;-82
2022/06/12 02:26:57;;;;;;;4.07;2.10;;;;;;;;;;5093576;28;20209;-82
2022/06/12 02:29:28;;;;;;;2.47;2.27;;;;;;;;;;5092249;28;20226;-82
2022/06/12 02:31:56;;;;;;;2.33;2.10;;;;;;;;;;5093109;28;20211;-82
2022/06/12 02:34:27;;;;;;;4.23;2.10;;;;;;;;;;5093269;28;20205;-82
2022/06/12 02:36:57;;;;;;;3.80;1.90;;;;;;;;;;5093410;28;20225;-83
2022/06/12 02:39:25;;;;;;;2.37;2.17;;;;;;;;;;5092930;28;20233;-83
2022/06/12 02:41:55;;;;;;;2.33;1.93;;;;;;;;;;5093648;28;20213;-83
2022/06/12 02:44:24;;;;;;;3.20;2.10;;;;;;;;;;5093465;28;20209;-83
2022/06/12 02:46:55;;;;;;;5.77;2.20;;;;;;;;;;5082289;28;20660;-82
2022/06/12 02:49:23;;;;;;;2.37;2.17;;;;;;;;;;5078190;28;20237;-82
2022/06/12 02:51:54;;;;;;;2.20;2.10;;;;;;;;;;5079036;28;20216;-82
2022/06/12 02:54:25;;;;;;;2.50;2.30;;;;;;;;;;5078729;28;20224;-82
2022/06/12 02:56:58;;;;;;;2.50;2.30;;;;;;;;;;5078581;28;20209;-82
2022/06/12 02:59:31;;;;;;;3.23;1.90;;;;;;;;;;5079918;28;20697;-82
2022/06/12 03:02:04;;;;;;;2.83;2.10;;;;;;;;;;5079909;28;20205;-82
2022/06/12 03:04:36;;;;;;;3.67;2.60;;;;;;;;;;5077560;28;20232;-82
2022/06/12 03:07:04;;;;;;;2.17;2.00;;;;;;;;;;5082496;28;20234;-82
2022/06/12 03:09:31;;;;;;;2.20;2.10;;;;;;;;;;5081559;28;20245;-82
2022/06/12 03:11:58;;;;;;;2.60;2.40;;;;;;;;;;5082356;28;20213;-82
2022/06/12 03:14:25;;;;;;;2.83;2.30;;;;;;;;;;5081327;28;20245;-82
2022/06/12 03:16:52;;;;;;;1.93;1.83;;;;;;;;;;5080916;28;20283;-82
2022/06/12 03:19:23;;;;;;;2.10;2.00;;;;;;;;;;5081795;28;20225;-83
2022/06/12 03:21:54;;;;;;;2.30;2.20;;;;;;;;;;5081577;28;20211;-82
2022/06/12 03:24:26;;;;;;;3.87;2.30;;;;;;;;;;5080283;28;20201;-82
2022/06/12 03:26:57;;;;;;;2.97;2.30;;;;;;;;;;5080509;28;20228;-82
2022/06/12 03:29:30;;;;;;;3.07;2.30;;;;;;;;;;5079026;28;20228;-82
2022/06/12 03:32:01;;;;;;;5.10;2.03;;;;;;;;;;5078306;28;20209;-82
2022/06/12 03:34:35;;;;;;;2.40;2.20;;;;;;;;;;5077904;28;20229;-82
2022/06/12 03:37:04;;;;;;;2.00;1.90;;;;;;;;;;5078889;28;20209;-82
2022/06/12 03:39:35;;;;;;;3.10;2.10;;;;;;;;;;5079965;28;20263;-82
2022/06/12 03:42:07;;;;;;;2.00;1.90;;;;;;;;;;5080925;28;20611;-82
2022/06/12 03:44:39;;;;;;;2.40;2.20;;;;;;;;;;5080943;28;20229;-82
2022/06/12 03:47:09;;;;;;;2.77;2.20;;;;;;;;;;5081712;28;20209;-82
2022/06/12 03:49:43;;;;;;;2.30;2.20;;;;;;;;;;5081521;28;20232;-82
2022/06/12 03:52:14;;;;;;;2.20;2.10;;;;;;;;;;5082217;28;20205;-82
2022/06/12 03:54:45;;;;;;;2.80;2.57;;;;;;;;;;5081299;28;20233;-82
2022/06/12 04:00:03;;;;;;;2.30;2.10;;;;;;;;;;5079796;28;20247;-82
2022/06/12 04:02:30;;;;;;;2.57;2.27;;;;;;;;;;5079462;28;20201;-82
2022/06/12 04:05:00;;;;;;;2.47;2.27;;;;;;;;;;5074911;28;20249;-82
2022/06/12 04:07:29;;;;;;;2.53;2.23;;;;;;;;;;5071747;28;20202;-82
2022/06/12 04:09:57;;;;;;;2.60;2.40;;;;;;;;;;5055337;28;20234;-82
2022/06/12 04:12:26;;;;;;;2.77;2.53;;;;;;;;;;5056124;28;20215;-82
2022/06/12 04:14:55;;;;;;;3.17;2.13;;;;;;;;;;5054898;28;20229;-82
2022/06/12 04:17:23;;;;;;;2.63;2.43;;;;;;;;;;5054472;28;20674;-82
2022/06/12 04:20:04;;;;;;;2.53;2.33;;;;;;;;;;5055613;28;20241;-82
2022/06/12 04:22:36;;;;;;;4.63;2.43;;;;;;;;;;5056645;28;20316;-82
2022/06/12 04:25:06;;;;;;;2.43;2.23;;;;;;;;;;5055858;28;20234;-82
2022/06/12 04:27:35;;;;;;;2.30;2.10;;;;;;;;;;5056333;28;20210;-82
2022/06/12 04:30:07;;;;;;;2.53;2.33;;;;;;;;;;5055387;28;20268;-82
2022/06/12 04:32:35;;;;;;;3.33;2.30;;;;;;;;;;5056703;28;20210;-83
2022/06/12 04:35:02;;;;;;;2.50;2.30;;;;;;;;;;5057220;28;20238;-83
2022/06/12 04:37:31;;;;;;;2.63;2.43;;;;;;;;;;5058331;28;20202;-82
2022/06/12 04:40:00;;;;;;;2.70;2.50;;;;;;;;;;5055839;28;20233;-83
2022/06/12 04:42:30;;;;;;;2.73;2.50;;;;;;;;;;5058152;28;20206;-82
2022/06/12 04:45:00;;;;;;;2.30;2.10;;;;;;;;;;5058669;28;20226;-83
2022/06/12 04:47:29;;;;;;;4.70;2.43;;;;;;;;;;5065987;28;20213;-83
2022/06/12 04:49:56;;;;;;;2.50;2.30;;;;;;;;;;5057621;28;20237;-83
2022/06/12 04:52:24;;;;;;;3.00;2.73;;;;;;;;;;5060219;28;20210;-83
2022/06/12 04:54:51;;;;;;;2.47;2.27;;;;;;;;;;5063663;28;20233;-82
2022/06/12 04:57:20;;;;;;;4.23;2.77;;;;;;;;;;5067177;28;20206;-82
2022/06/12 04:59:47;;;;;;;2.53;2.37;;;;;;;;;;5064763;28;20233;-82
2022/06/12 05:02:15;;;;;;;7.20;2.97;;;;;;;;;;5076376;28;20559;-82
2022/06/12 05:04:42;;;;;;;5.20;2.50;;;;;;;;;;5080925;28;20274;-82
2022/06/12 05:07:10;;;;;;;4.07;2.60;;;;;;;;;;5081601;28;20669;-82
2022/06/12 05:09:39;;;;;;;2.80;2.60;;;;;;;;;;5060597;28;20241;-82
2022/06/12 05:12:07;;;;;;;3.50;2.50;;;;;;;;;;5058867;28;20210;-82
2022/06/12 05:14:35;;;;;;;3.30;2.50;;;;;;;;;;5065652;28;20229;-83
2022/06/12 05:17:04;;;;;;;2.80;2.60;;;;;;;;;;5055149;28;20573;-83
2022/06/12 05:19:33;;;;;;;2.80;2.60;;;;;;;;;;5059270;28;20234;-83
2022/06/12 05:22:01;;;;;;;3.10;2.80;;;;;;;;;;5058138;28;20214;-83
2022/06/12 05:24:29;;;;;;;3.70;2.77;;;;;;;;;;5057887;28;20250;-83
2022/06/12 05:26:56;;;;;;;2.67;2.47;;;;;;;;;;5055867;28;20202;-83
2022/06/12 05:29:25;;;;;;;2.83;2.63;;;;;;;;;;5055945;28;20225;-83
2022/06/12 05:31:54;;;;;;;3.10;2.27;;;;;;;;;;5056999;28;20257;-83
2022/06/12 05:34:22;;;;;;;2.47;2.27;;;;;;;;;;5055618;28;20226;-83
2022/06/12 05:36:49;;;;;;;4.47;2.67;;;;;;;;;;5057271;28;20194;-83
2022/06/12 05:39:16;;;;;;;2.93;2.63;;;;;;;;;;5056957;28;20222;-83
2022/06/12 05:41:44;;;;;;;2.93;2.57;;;;;;;;;;5059700;28;20210;-80
2022/06/12 05:44:12;;;;;;;2.90;2.70;;;;;;;;;;5060998;28;20202;-81
2022/06/12 05:46:40;;;;;;;2.87;2.50;;;;;;;;;;5060998;28;20237;-82
2022/06/12 05:49:08;;;;;;;2.73;2.50;;;;;;;;;;5060014;28;20233;-82
2022/06/12 05:51:35;;;;;;;2.67;2.50;;;;;;;;;;5060918;28;20198;-81
2022/06/12 05:54:02;;;;;;;2.97;2.63;;;;;;;;;;5060595;28;20686;-82
2022/06/12 05:56:30;;;;;;;2.40;2.20;;;;;;;;;;5061741;28;20244;-82
2022/06/12 05:58:59;;;;;;;2.93;2.27;;;;;;;;;;5061228;28;20206;-82
2022/06/12 06:01:27;;;;;;;2.78;2.55;;;;;;;;;;5070860;28;20228;-82
2022/06/12 06:03:54;;;;;;;2.57;2.40;;;;;;;;;;5084496;28;20205;-82
2022/06/12 06:06:24;;;;;;;2.22;2.03;;;;;;;;;;5083544;28;20239;-81
2022/06/12 06:08:51;;;;;;;3.22;2.50;;;;;;;;;;5069076;28;20578;-82
2022/06/12 06:11:18;;;;;;;2.05;1.95;;;;;;;;;;5064420;28;20234;-81
2022/06/12 06:13:45;;;;;;;3.30;2.40;;;;;;;;;;5063368;28;20228;-81
2022/06/12 06:16:12;;;;;;;3.28;2.63;;;;;;;;;;5063651;28;20233;-82
2022/06/12 06:18:40;;;;;;;2.72;2.42;;;;;;;;;;5064583;28;20662;-83
2022/06/12 06:21:08;;;;;;;3.47;2.25;;;;;;;;;;5062032;28;20230;-83
2022/06/12 06:23:37;;;;;;;4.78;2.10;;;;;;;;;;5061747;28;20206;-83
2022/06/12 06:26:04;;;;;;;2.50;2.30;;;;;;;;;;5053796;28;20233;-79
2022/06/12 06:28:32;;;;;;;2.28;2.03;;;;;;;;;;5052173;28;20674;-79
2022/06/12 06:30:59;;;;;;;5.63;2.20;;;;;;;;;;5051746;28;20295;-81
2022/06/12 06:33:26;;;;;;;2.22;2.00;;;;;;;;;;5051640;28;20210;-79
2022/06/12 06:35:53;;;;;;;3.80;2.58;;;;;;;;;;5051282;28;20233;-80
2022/06/12 06:38:20;;;;;;;2.20;2.10;;;;;;;;;;5051795;28;20292;-80
2022/06/12 06:40:50;;;;;;;2.92;2.50;;;;;;;;;;5050354;28;20238;-80
2022/06/12 06:43:17;;;;;;;4.70;2.30;;;;;;;;;;5051424;28;20576;-79
2022/06/12 06:48:29;;;;;;;2.22;2.03;;;;;;;;;;5051968;28;20216;-79
2022/06/12 06:50:57;;;;;;;2.33;1.90;;;;;;;;;;5051377;28;20367;-80
2022/06/12 06:53:24;;;;;;;2.00;1.90;;;;;;;;;;5052504;28;20209;-79
2022/06/12 06:55:52;;;;;;;2.05;1.90;;;;;;;;;;5051120;28;20237;-79
2022/06/12 06:58:21;;;;;;;2.50;2.20;;;;;;;;;;5051780;28;20210;-79
2022/06/12 07:00:49;;;;;;;3.45;1.80;;;;;;;;;;5053525;28;20299;-79
2022/06/12 07:03:16;;;;;;;1.42;1.33;;;;;;;;;;5084624;22;20185;-78
2022/06/12 07:05:44;;;;;;;1.83;1.70;;;;;;;;;;5048306;28;20226;-78
2022/06/12 07:08:11;;;;;;;2.17;1.58;;;;;;;;;;5044268;28;20210;-79
2022/06/12 07:10:39;;;;;;;2.30;1.90;;;;;;;;;;5035523;28;20593;-79
2022/06/12 07:13:08;;;;;;;1.92;1.70;;;;;;;;;;5035637;28;20218;-79
2022/06/12 07:15:36;;;;;;;2.55;1.80;;;;;;;;;;5035251;28;20231;-79
2022/06/12 07:18:04;;;;;;;1.80;1.70;;;;;;;;;;5035491;28;20214;-79
2022/06/12 07:20:32;;;;;;;2.40;1.83;;;;;;;;;;5035222;28;20238;-79
2022/06/12 07:22:59;;;;;;;1.90;1.38;;;;;;;;;;5037329;28;20211;-78
2022/06/12 07:25:27;;;;;;;1.98;1.60;;;;;;;;;;5034999;28;20257;-78
2022/06/12 07:27:54;;;;;;;1.83;1.60;;;;;;;;;;5035465;28;20210;-81
2022/06/12 07:30:23;;;;;;;1.98;1.58;;;;;;;;;;5035375;28;20226;-78
2022/06/12 07:32:51;;;;;;;1.70;1.60;;;;;;;;;;5034926;28;20213;-78
2022/06/12 07:35:18;;;;;;;1.58;1.48;;;;;;;;;;5034382;28;20270;-83
2022/06/12 07:37:45;;;;;;;1.70;1.45;;;;;;;;;;5030903;28;20202;-76
2022/06/12 07:40:15;;;;;;;2.55;1.58;;;;;;;;;;5030846;28;20231;-76
2022/06/12 07:42:42;;;;;;;1.45;1.35;;;;;;;;;;5031214;28;20210;-77
2022/06/12 07:45:10;;;;;;;2.33;1.90;;;;;;;;;;5030123;28;20238;-75
2022/06/12 07:47:39;;;;;;;2.83;1.15;;;;;;;;;;5030989;28;20631;-76
2022/06/12 07:50:06;;;;;;;1.80;1.42;;;;;;;;;;5030726;28;20580;-76
2022/06/12 07:52:35;;;;;;;1.90;1.67;;;;;;;;;;5033666;28;20207;-76
2022/06/12 07:55:02;;;;;;;1.70;1.60;;;;;;;;;;5034062;28;20823;-76
2022/06/12 07:57:29;;;;;;;1.92;1.50;;;;;;;;;;5034774;28;20226;-77
2022/06/12 07:59:56;;;;;;;1.83;1.73;;;;;;;;;;5034341;28;20282;-77
2022/06/12 08:02:23;;;;;;;1.95;1.60;;;;;;;;;;5034362;28;20241;-77
2022/06/12 08:04:52;;;;;;;1.65;1.40;;;;;;;;;;5033170;28;20580;-77
2022/06/12 08:07:19;;;;;;;1.80;1.67;;;;;;;;;;5034242;28;20205;-77
2022/06/12 08:09:46;;;;;;;1.60;1.50;;;;;;;;;;5033743;28;20237;-77
2022/06/12 08:12:13;;;;;;;1.42;1.33;;;;;;;;;;5034486;28;20215;-77
2022/06/12 08:14:40;;;;;;;1.90;1.50;;;;;;;;;;5033699;28;20617;-75
2022/06/12 08:17:08;;;;;;;1.33;1.30;;;;;;;;;;5033920;28;20215;-75
2022/06/12 08:22:26;;;;;;;1.50;1.40;;;;;;;;;;5023362;28;20345;-74
2022/06/12 08:24:54;;;;;;;1.40;1.38;;;;;;;;;;5033013;28;20242;-74
2022/06/12 08:27:21;;;;;;;1.42;1.33;;;;;;;;;;5033817;28;20698;-74
2022/06/12 08:29:48;;;;;;;1.00;1.00;;;;;;;;;;5033476;28;20230;-75
2022/06/12 08:32:19;;;;;;;2.75;1.27;;;;;;;;;;5034077;28;20206;-75
2022/06/12 08:34:48;;;;;;;1.60;1.50;;;;;;;;;;5032983;28;20235;-75
2022/06/12 08:37:17;;;;;;;1.25;1.15;;;;;;;;;;5033962;28;20242;-74
2022/06/12 08:39:45;;;;;;;1.55;1.25;;;;;;;;;;5033662;28;20237;-75
2022/06/12 08:42:16;;;;;;;2.47;1.75;;;;;;;;;;5033760;28;20238;-75
2022/06/12 08:44:49;;;;;;;1.10;1.10;;;;;;;;;;5032781;28;20235;-75
2022/06/12 08:47:19;;;;;;;1.17;0.95;;;;;;;;;;5033902;28;20214;-74
2022/06/12 08:49:50;;;;;;;1.17;1.08;;;;;;;;;;5033127;28;20239;-74
2022/06/12 08:52:18;;;;;;;1.40;1.30;;;;;;;;;;5033665;28;20194;-75
2022/06/12 08:54:51;;;;;;;1.13;1.08;;;;;;;;;;5032527;28;20230;-74
2022/06/12 08:57:20;;;;;;;1.42;1.33;;;;;;;;;;5033621;28;20211;-75
2022/06/12 08:59:50;;;;;;;1.13;1.13;;;;;;;;;;5033024;28;20237;-74
2022/06/12 09:02:19;;;;;;;0.90;0.90;;;;;;;;;;5032953;28;20228;-74
2022/06/12 09:04:47;;;;;;;1.60;1.50;;;;;;;;;;5031730;28;20629;-75
2022/06/12 09:07:15;;;;;;;1.58;1.45;;;;;;;;;;5033892;28;20678;-77
2022/06/12 09:09:46;;;;;;;3.97;1.70;;;;;;;;;;5034683;28;20605;-77
2022/06/12 09:12:18;;;;;;;1.35;1.20;;;;;;;;;;5035235;28;20662;-78
2022/06/12 09:14:54;;;;;;;1.30;1.20;;;;;;;;;;5033522;28;20238;-77
2022/06/12 09:17:27;;;;;;;1.30;1.20;;;;;;;;;;5033627;28;20214;-78
2022/06/12 09:20:00;;;;;;;1.13;1.13;;;;;;;;;;5033286;28;20234;-77
2022/06/12 09:22:34;;;;;;;1.50;1.40;;;;;;;;;;5040326;28;20207;-78
2022/06/12 09:25:07;;;;;;;1.50;1.40;;;;;;;;;;5034424;28;20288;-78
2022/06/12 09:27:39;;;;;;;0.90;0.82;;;;;;;;;;5034990;28;20270;-79
2022/06/12 09:30:08;;;;;;;1.45;1.20;;;;;;;;;;5034836;28;20242;-78
2022/06/12 09:32:42;;;;;;;1.15;1.08;;;;;;;;;;5034036;28;20675;-78
2022/06/12 09:35:13;;;;;;;1.25;1.10;;;;;;;;;;5032900;28;20237;-79
2022/06/12 09:40:37;;;;;;;1.25;1.25;;;;;;;;;;5032827;28;20233;-80
2022/06/12 09:43:14;;;;;;;3.88;1.05;;;;;;;;;;5035464;28;20268;-79
2022/06/12 09:45:44;;;;;;;1.23;1.17;;;;;;;;;;5034061;28;20234;-80
2022/06/12 09:48:15;;;;;;;1.10;1.10;;;;;;;;;;5034637;28;20194;-79
2022/06/12 09:50:47;;;;;;;1.67;1.27;;;;;;;;;;5033740;28;20234;-79
2022/06/12 09:53:26;;;;;;;3.22;1.33;;;;;;;;;;5035313;28;20252;-79
2022/06/12 09:55:55;;;;;;;1.77;1.10;;;;;;;;;;5032122;28;20300;-78
2022/06/12 09:58:29;;;;;;;1.10;1.10;;;;;;;;;;5032418;28;20214;-79
2022/06/12 10:00:58;;;;;;;2.03;1.33;;;;;;;;;;5032630;28;20238;-79
2022/06/12 10:03:29;;;;;;;1.20;1.00;;;;;;;;;;5035849;28;20596;-79
2022/06/12 10:05:57;;;;;;;0.88;0.88;;;;;;;;;;5032974;28;20238;-78
2022/06/12 10:08:28;;;;;;;1.45;1.35;;;;;;;;;;5033518;28;20249;-78
2022/06/12 10:10:57;;;;;;;1.85;1.20;;;;;;;;;;5032225;28;20234;-79
2022/06/12 10:13:30;;;;;;;1.35;1.25;;;;;;;;;;5032196;28;20230;-79
2022/06/12 10:16:00;;;;;;;0.85;0.85;;;;;;;;;;5032903;28;20235;-79
2022/06/12 10:18:29;;;;;;;0.98;0.98;;;;;;;;;;5039217;28;20207;-79
2022/06/12 10:20:58;;;;;;;1.42;1.33;;;;;;;;;;5035495;28;20233;-79
2022/06/12 10:23:25;;;;;;;0.80;0.80;;;;;;;;;;5036624;28;20242;-79
2022/06/12 10:25:54;;;;;;;1.23;1.10;;;;;;;;;;5036559;28;20250;-79
2022/06/12 10:28:23;;;;;;;1.42;1.02;;;;;;;;;;5036793;28;20202;-79
2022/06/12 10:31:01;;;;;;;2.00;1.30;;;;;;;;;;5036570;28;20644;-78
2022/06/12 10:33:30;;;;;;;1.80;1.20;;;;;;;;;;5037046;28;20317;-79
2022/06/12 10:35:59;;;;;;;0.80;0.80;;;;;;;;;;5036822;28;20230;-79
2022/06/12 10:38:27;;;;;;;1.75;1.27;;;;;;;;;;5038131;28;20202;-80
2022/06/12 10:40:55;;;;;;;1.00;0.90;;;;;;;;;;5038351;28;20234;-79
2022/06/12 10:43:28;;;;;;;1.65;1.27;;;;;;;;;;5035270;28;20262;-80
2022/06/12 10:46:02;;;;;;;1.25;0.90;;;;;;;;;;5034520;28;20238;-79
2022/06/12 10:48:30;;;;;;;0.88;0.80;;;;;;;;;;5036344;28;20190;-80
2022/06/12 10:50:59;;;;;;;1.50;1.30;;;;;;;;;;5037619;28;20246;-81
2022/06/12 10:53:27;;;;;;;1.20;1.10;;;;;;;;;;5018898;28;20595;-80
2022/06/12 10:55:57;;;;;;;2.20;1.02;;;;;;;;;;5020596;28;20227;-80
2022/06/12 10:58:49;;;;;;;2.15;1.10;;;;;;;;;;5016657;28;20207;-79
2022/06/12 11:01:19;;;;;;;1.58;1.33;;;;;;;;;;5012595;28;20668;-79
2022/06/12 11:03:51;;;;;;;0.70;0.70;;;;;;;;;;5017680;28;20265;-80
2022/06/12 11:06:21;;;;;;;2.28;1.08;;;;;;;;;;5017546;28;20242;-80
2022/06/12 11:08:57;;;;;;;1.20;1.10;;;;;;;;;;5033387;28;20198;-80
2022/06/12 11:11:29;;;;;;;2.58;1.02;;;;;;;;;;5036165;28;20226;-80
2022/06/12 11:14:06;;;;;;;1.30;0.80;;;;;;;;;;5036559;28;20223;-80
2022/06/12 11:16:51;;;;;;;1.10;1.10;;;;;;;;;;5036580;28;20218;-80
2022/06/12 11:19:26;;;;;;;1.30;1.20;;;;;;;;;;5035064;28;20206;-81
2022/06/12 11:21:57;;;;;;;0.85;0.82;;;;;;;;;;5035131;28;20321;-80
2022/06/12 11:24:27;;;;;;;0.85;0.85;;;;;;;;;;5033669;28;20237;-79
2022/06/12 11:27:05;;;;;;;1.20;1.20;;;;;;;;;;5037462;28;20264;-79
2022/06/12 11:29:39;;;;;;;1.83;1.02;;;;;;;;;;5039241;28;20241;-79
2022/06/12 11:32:13;;;;;;;1.23;1.13;;;;;;;;;;5039913;28;20187;-80
2022/06/12 11:34:52;;;;;;;1.00;0.90;;;;;;;;;;5037906;28;20229;-80
2022/06/12 11:37:25;;;;;;;0.82;0.82;;;;;;;;;;5038733;28;20674;-80
2022/06/12 11:39:56;;;;;;;1.08;1.00;;;;;;;;;;5029832;28;20725;-80
2022/06/12 11:42:30;;;;;;;0.90;0.90;;;;;;;;;;5017380;28;20226;-80
2022/06/12 11:45:03;;;;;;;1.23;1.10;;;;;;;;;;5016777;28;20699;-80
2022/06/12 11:47:41;;;;;;;1.10;1.00;;;;;;;;;;5018169;28;20203;-80
2022/06/12 11:50:16;;;;;;;0.70;0.70;;;;;;;;;;5018592;28;20235;-78
2022/06/12 11:52:49;;;;;;;1.55;1.05;;;;;;;;;;5016197;28;20191;-79
2022/06/12 11:55:20;;;;;;;1.30;1.10;;;;;;;;;;5018443;28;20241;-81
2022/06/12 11:57:51;;;;;;;1.42;1.10;;;;;;;;;;5021973;28;20731;-80
2022/06/12 12:00:20;;;;;;;1.55;0.80;;;;;;;;;;5020616;28;20231;-79
2022/06/12 12:02:53;;;;;;;0.77;0.77;;;;;;;;;;5022690;28;20231;-79
2022/06/12 12:05:29;;;;;;;1.00;0.90;;;;;;;;;;5019652;28;20614;-79
2022/06/12 12:08:01;;;;;;;0.80;0.80;;;;;;;;;;5027365;28;20191;-79
2022/06/12 12:10:39;;;;;;;1.52;0.82;;;;;;;;;;5039578;28;20246;-79
2022/06/12 12:13:10;;;;;;;1.48;0.95;;;;;;;;;;5024257;28;20253;-78
2022/06/12 12:15:45;;;;;;;0.60;0.57;;;;;;;;;;5015278;28;20239;-78
2022/06/12 12:18:23;;;;;;;0.93;0.90;;;;;;;;;;5016600;28;20207;-78
2022/06/12 12:20:51;;;;;;;1.10;1.10;;;;;;;;;;5014550;28;20656;-78
2022/06/12 12:23:21;;;;;;;1.42;1.20;;;;;;;;;;5015633;28;20247;-78
2022/06/12 12:25:50;;;;;;;0.88;0.88;;;;;;;;;;5013974;28;20246;-79
2022/06/12 12:28:21;;;;;;;0.85;0.60;;;;;;;;;;5016265;28;20207;-79
2022/06/12 12:30:50;;;;;;;0.82;0.82;;;;;;;;;;5015340;28;20243;-78
2022/06/12 12:33:19;;;;;;;0.70;0.70;;;;;;;;;;5015532;28;20546;-78
2022/06/12 12:41:20;;;;;;;1.08;0.90;;;;;;;;;;5016296;28;20601;-78
2022/06/12 12:43:52;;;;;;;1.55;0.80;;;;;;;;;;5015373;28;20228;-78
2022/06/12 12:46:19;;;;;;;0.85;0.80;;;;;;;;;;5013697;28;20231;-78
2022/06/12 12:48:49;;;;;;;0.80;0.80;;;;;;;;;;5033849;28;20294;-78
2022/06/12 12:51:27;;;;;;;0.73;0.73;;;;;;;;;;5033190;28;20238;-78
2022/06/12 12:53:54;;;;;;;1.55;0.95;;;;;;;;;;5033131;28;20230;-78
2022/06/12 12:56:30;;;;;;;1.77;0.88;;;;;;;;;;5033263;28;20313;-78
2022/06/12 12:58:59;;;;;;;1.02;0.93;;;;;;;;;;5033167;28;20236;-78
2022/06/12 13:01:27;;;;;;;2.35;0.90;;;;;;;;;;5033936;28;20238;-78
2022/06/12 13:03:57;;;;;;;3.70;0.90;;;;;;;;;;5034215;28;20238;-79
2022/06/12 13:06:40;;;;;;;1.08;0.80;;;;;;;;;;5067496;22;20232;-82
2022/06/12 13:09:22;;;;;;;1.23;0.77;;;;;;;;;;5052635;28;20622;-82
2022/06/12 13:11:57;;;;;;;1.10;1.05;;;;;;;;;;5040522;28;20283;-82
2022/06/12 13:14:36;;;;;;;1.80;0.85;;;;;;;;;;5055854;28;20206;-82
2022/06/12 13:17:10;;;;;;;0.82;0.77;;;;;;;;;;5055665;28;20229;-81
2022/06/12 13:19:45;;;;;;;1.92;1.20;;;;;;;;;;5056114;28;20283;-82
2022/06/12 13:22:19;;;;;;;0.93;0.88;;;;;;;;;;5056145;28;20237;-82
2022/06/12 13:24:48;;;;;;;1.77;1.10;;;;;;;;;;5056018;28;20233;-82
2022/06/12 13:27:21;;;;;;;0.82;0.82;;;;;;;;;;5055941;28;20255;-82
2022/06/12 13:29:49;;;;;;;1.00;0.95;;;;;;;;;;5056870;28;20233;-82
2022/06/12 13:32:24;;;;;;;1.17;1.02;;;;;;;;;;5056576;28;20201;-82
2022/06/12 13:34:56;;;;;;;1.15;0.93;;;;;;;;;;5052889;28;20257;-82
2022/06/12 13:37:24;;;;;;;3.47;1.15;;;;;;;;;;5053968;28;20209;-81
2022/06/12 13:39:51;;;;;;;0.93;0.93;;;;;;;;;;5054172;28;20229;-84
2022/06/12 13:42:21;;;;;;;1.10;1.00;;;;;;;;;;5055743;28;20599;-82
2022/06/12 13:44:49;;;;;;;1.83;1.00;;;;;;;;;;5054461;28;20229;-82
2022/06/12 13:47:25;;;;;;;1.33;1.23;;;;;;;;;;5055291;28;20209;-83
2022/06/12 13:49:53;;;;;;;1.20;1.00;;;;;;;;;;5052063;28;20247;-82
2022/06/12 13:52:29;;;;;;;1.42;0.90;;;;;;;;;;5052884;28;20202;-82
2022/06/12 13:54:56;;;;;;;1.95;1.15;;;;;;;;;;5051954;28;20233;-83
2022/06/12 13:57:26;;;;;;;0.98;0.98;;;;;;;;;;5052870;28;20213;-83
2022/06/12 13:59:53;;;;;;;0.90;0.80;;;;;;;;;;5052143;28;20225;-82
2022/06/12 14:02:23;;;;;;;1.17;0.93;;;;;;;;;;5052648;28;20317;-82
2022/06/12 14:04:51;;;;;;;1.08;0.98;;;;;;;;;;5051911;28;20233;-83
2022/06/12 14:07:18;;;;;;;1.98;1.10;;;;;;;;;;5052803;28;20545;-83
2022/06/12 14:09:49;;;;;;;1.70;0.80;;;;;;;;;;5052040;28;20236;-83
2022/06/12 14:12:16;;;;;;;1.20;1.10;;;;;;;;;;5052653;28;20193;-83
2022/06/12 14:14:44;;;;;;;0.55;0.55;;;;;;;;;;5051390;28;20229;-82
2022/06/12 14:17:19;;;;;;;0.93;0.82;;;;;;;;;;5052299;28;20213;-83
2022/06/12 14:19:56;;;;;;;1.05;0.90;;;;;;;;;;5051996;28;20238;-83
2022/06/12 14:22:23;;;;;;;1.02;0.90;;;;;;;;;;5052487;28;20236;-83
2022/06/12 14:24:58;;;;;;;1.20;0.80;;;;;;;;;;5051342;28;20580;-83
2022/06/12 14:27:32;;;;;;;1.00;0.80;;;;;;;;;;5052651;28;20186;-83
2022/06/12 14:29:59;;;;;;;0.80;0.80;;;;;;;;;;5052511;28;20592;-83
2022/06/12 14:32:28;;;;;;;1.00;0.70;;;;;;;;;;5053033;28;20198;-83
2022/06/12 14:35:08;;;;;;;1.10;0.77;;;;;;;;;;5054427;28;20237;-82
2022/06/12 14:37:37;;;;;;;2.00;1.10;;;;;;;;;;5056359;28;20233;-81
2022/06/12 14:40:23;;;;;;;1.02;0.90;;;;;;;;;;5055477;28;20228;-82
2022/06/12 14:42:51;;;;;;;1.40;1.00;;;;;;;;;;5055282;28;20220;-81
2022/06/12 14:45:18;;;;;;;1.05;0.80;;;;;;;;;;5054341;28;20244;-84
2022/06/12 14:47:50;;;;;;;0.85;0.85;;;;;;;;;;5051996;28;20213;-83
2022/06/12 14:50:17;;;;;;;1.17;0.95;;;;;;;;;;5051051;28;20652;-84
2022/06/12 14:52:44;;;;;;;1.38;1.10;;;;;;;;;;5052602;28;20224;-84
2022/06/12 14:55:11;;;;;;;0.88;0.82;;;;;;;;;;5050652;28;20242;-84
2022/06/12 14:57:40;;;;;;;0.77;0.77;;;;;;;;;;5051348;28;20271;-84
2022/06/12 15:00:11;;;;;;;1.40;0.60;;;;;;;;;;5050859;28;20242;-84
2022/06/12 15:02:38;;;;;;;1.00;0.98;;;;;;;;;;5051006;28;20236;-82
2022/06/12 15:05:11;;;;;;;0.90;0.90;;;;;;;;;;5050156;28;20597;-84
2022/06/12 15:07:38;;;;;;;1.05;0.88;;;;;;;;;;5046119;28;20749;-85
2022/06/12 15:10:05;;;;;;;1.15;1.02;;;;;;;;;;5031060;28;20238;-85
2022/06/12 15:12:32;;;;;;;1.65;1.10;;;;;;;;;;5031814;28;20616;-84
2022/06/12 15:15:01;;;;;;;1.38;0.75;;;;;;;;;;5030882;28;20237;-84
2022/06/12 15:17:28;;;;;;;0.75;0.73;;;;;;;;;;5032163;28;20206;-78
2022/06/12 15:19:55;;;;;;;0.80;0.80;;;;;;;;;;5027921;28;20235;-81
2022/06/12 15:22:22;;;;;;;1.20;1.10;;;;;;;;;;5032979;28;20214;-81